Time;durP1;ratioP1;P1;durP2;ratioP2;P2;SDS_P1;SDS_P2;PMS_P1;PMS_P2;Temp;Humidity;BMP_temperature;BMP_pressure;BME280_temperature;BME280_humidity;BME280_pressure;Samples;Min_cycle;Max_cycle;Signal;HPM_P1;HPM_P2
2021/09/20 00:01:48;;;;;;;22.48;16.50;;;17.60;79.70;;;;;;5015363;28;20053;-82
2021/09/20 00:04:15;;;;;;;23.95;17.13;;;17.60;79.80;;;;;;5018249;28;20042;-82
2021/09/20 00:06:42;;;;;;;22.45;16.77;;;17.60;79.80;;;;;;5019434;28;20580;-82
2021/09/20 00:09:09;;;;;;;23.23;17.90;;;17.50;79.90;;;;;;5019498;28;20049;-82
2021/09/20 00:11:36;;;;;;;23.23;16.92;;;17.50;79.90;;;;;;5019319;28;20056;-82
2021/09/20 00:14:03;;;;;;;23.83;16.42;;;17.50;79.90;;;;;;5016766;28;20493;-82
2021/09/20 00:16:30;;;;;;;21.83;16.17;;;17.50;80.00;;;;;;5017036;28;20053;-82
2021/09/20 00:18:57;;;;;;;26.92;15.90;;;17.50;80.10;;;;;;5018350;28;20096;-82
2021/09/20 00:21:26;;;;;;;22.75;15.35;;;17.50;80.10;;;;;;5019079;28;20107;-82
2021/09/20 00:23:53;;;;;;;19.73;14.70;;;17.40;80.20;;;;;;5019216;28;20057;-82
2021/09/20 00:26:20;;;;;;;22.90;15.00;;;17.50;80.20;;;;;;5018804;28;20057;-82
2021/09/20 00:28:47;;;;;;;26.88;15.02;;;17.40;80.20;;;;;;5015114;28;20050;-82
2021/09/20 00:31:13;;;;;;;21.90;14.60;;;17.40;80.20;;;;;;5017813;28;20053;-82
2021/09/20 00:33:41;;;;;;;22.50;14.45;;;17.40;80.20;;;;;;5019001;28;20050;-82
2021/09/20 00:36:09;;;;;;;20.23;13.25;;;17.40;80.20;;;;;;5019037;28;20580;-82
2021/09/20 00:38:35;;;;;;;20.73;14.75;;;17.40;80.20;;;;;;5018525;28;20041;-82
2021/09/20 00:41:03;;;;;;;17.80;12.45;;;17.40;80.20;;;;;;5016435;28;20530;-82
2021/09/20 00:43:30;;;;;;;22.73;13.68;;;17.40;80.30;;;;;;5016333;28;20065;-82
2021/09/20 00:45:57;;;;;;;20.70;14.45;;;17.40;80.20;;;;;;5017852;28;20062;-82
2021/09/20 00:48:24;;;;;;;15.30;12.93;;;17.40;80.20;;;;;;5018706;28;20146;-82
2021/09/20 00:50:51;;;;;;;18.83;13.00;;;17.40;80.30;;;;;;5018630;28;20180;-82
2021/09/20 00:53:18;;;;;;;17.75;11.98;;;17.40;80.20;;;;;;5018055;28;20049;-82
2021/09/20 00:55:45;;;;;;;16.63;12.50;;;17.40;80.20;;;;;;5014855;28;20046;-82
2021/09/20 00:58:13;;;;;;;19.65;11.75;;;17.40;80.20;;;;;;5017645;28;20473;-82
2021/09/20 01:00:41;;;;;;;17.05;12.63;;;17.40;80.20;;;;;;5018245;28;20442;-82
2021/09/20 01:03:08;;;;;;;16.48;12.23;;;17.40;80.20;;;;;;5018285;28;20053;-82
2021/09/20 01:05:35;;;;;;;18.67;11.57;;;17.40;80.20;;;;;;5018403;28;20124;-82
2021/09/20 01:08:03;;;;;;;17.90;12.27;;;17.40;80.20;;;;;;5015681;28;20053;-82
2021/09/20 01:10:30;;;;;;;19.55;11.77;;;17.40;80.30;;;;;;5016004;28;20046;-82
2021/09/20 01:12:57;;;;;;;19.48;12.45;;;17.40;80.30;;;;;;5017692;28;20050;-82
2021/09/20 01:15:24;;;;;;;16.38;11.00;;;17.40;80.30;;;;;;5008661;28;20103;-82
2021/09/20 01:17:51;;;;;;;17.33;11.95;;;17.40;80.40;;;;;;5005426;28;20064;-82
2021/09/20 01:20:18;;;;;;;14.25;10.88;;;17.40;80.40;;;;;;5015162;28;20050;-82
2021/09/20 01:22:49;;;;;;;16.48;10.88;;;17.30;80.40;;;;;;4997087;28;20100;-82
2021/09/20 01:25:16;;;;;;;17.50;11.77;;;17.40;80.40;;;;;;5028332;28;20380;-82
2021/09/20 01:27:43;;;;;;;15.63;11.63;;;17.40;80.50;;;;;;5015195;28;20108;-82
2021/09/20 01:30:11;;;;;;;14.45;10.65;;;17.30;80.50;;;;;;5014657;28;20046;-82
2021/09/20 01:32:37;;;;;;;18.02;11.32;;;17.30;80.40;;;;;;5015011;28;20049;-82
2021/09/20 01:35:05;;;;;;;13.93;10.95;;;17.40;80.50;;;;;;5014872;28;20084;-82
2021/09/20 01:37:32;;;;;;;13.27;10.80;;;17.40;80.60;;;;;;5012921;28;20498;-82
2021/09/20 01:40:00;;;;;;;16.25;10.60;;;17.30;80.60;;;;;;5014621;28;20080;-82
2021/09/20 01:42:27;;;;;;;12.93;9.85;;;17.30;80.70;;;;;;5014774;28;20050;-82
2021/09/20 01:44:53;;;;;;;23.45;11.32;;;17.30;80.70;;;;;;5014457;28;20124;-82
2021/09/20 01:47:20;;;;;;;14.20;10.38;;;17.30;80.70;;;;;;5014694;28;20041;-82
2021/09/20 01:49:47;;;;;;;18.15;10.35;;;17.30;80.70;;;;;;5013505;28;20050;-82
2021/09/20 01:52:14;;;;;;;17.00;11.25;;;17.20;80.80;;;;;;5012498;28;20080;-82
2021/09/20 01:54:41;;;;;;;12.50;9.90;;;17.20;80.80;;;;;;5014500;28;20105;-82
2021/09/20 01:57:08;;;;;;;12.52;9.90;;;17.20;81.00;;;;;;5014431;28;20050;-82
2021/09/20 01:59:35;;;;;;;16.25;9.57;;;17.20;81.00;;;;;;5016980;28;20072;-82
2021/09/20 02:02:02;;;;;;;14.95;10.50;;;17.20;81.10;;;;;;5014567;28;20056;-83
2021/09/20 02:04:29;;;;;;;12.10;9.70;;;17.20;81.10;;;;;;5014853;28;20054;-82
2021/09/20 02:06:56;;;;;;;16.30;9.48;;;17.20;81.10;;;;;;5016874;28;20054;-82
2021/09/20 02:09:23;;;;;;;13.40;8.63;;;17.20;81.10;;;;;;5017105;28;20050;-82
2021/09/20 02:11:50;;;;;;;15.85;9.93;;;17.20;81.10;;;;;;5017208;28;20100;-82
2021/09/20 02:14:16;;;;;;;16.70;10.13;;;17.20;81.10;;;;;;5015999;28;20506;-82
2021/09/20 02:16:43;;;;;;;12.55;8.70;;;17.20;81.20;;;;;;5013591;28;20053;-82
2021/09/20 02:19:10;;;;;;;19.08;9.55;;;17.10;81.10;;;;;;5016046;28;20050;-82
2021/09/20 02:21:37;;;;;;;13.18;8.60;;;17.10;81.10;;;;;;5017024;28;20092;-82
2021/09/20 02:24:04;;;;;;;16.85;8.63;;;17.20;81.20;;;;;;5017024;28;20046;-82
2021/09/20 02:26:31;;;;;;;15.57;8.82;;;17.10;81.20;;;;;;5016916;28;20533;-82
2021/09/20 02:28:58;;;;;;;16.75;8.82;;;17.10;81.30;;;;;;5013110;28;20049;-82
2021/09/20 02:31:25;;;;;;;13.35;8.57;;;17.20;81.30;;;;;;5014927;28;20466;-82
2021/09/20 02:33:52;;;;;;;15.27;9.15;;;17.10;81.20;;;;;;5016666;28;20141;-82
2021/09/20 02:36:19;;;;;;;14.57;8.30;;;17.10;81.30;;;;;;5016719;28;20050;-82
2021/09/20 02:38:46;;;;;;;15.60;8.60;;;17.20;81.30;;;;;;5016871;28;20049;-82
2021/09/20 02:41:13;;;;;;;19.88;9.48;;;17.20;81.20;;;;;;5015316;28;20091;-82
2021/09/20 02:43:40;;;;;;;13.95;8.30;;;17.20;81.20;;;;;;5013336;28;20399;-82
2021/09/20 02:46:07;;;;;;;13.05;7.43;;;17.10;81.20;;;;;;5015807;28;20045;-83
2021/09/20 02:48:34;;;;;;;13.10;7.25;;;17.20;81.20;;;;;;5016476;28;20092;-82
2021/09/20 02:51:02;;;;;;;14.43;8.68;;;17.20;81.20;;;;;;5016566;28;20054;-82
2021/09/20 02:53:30;;;;;;;16.00;8.00;;;17.20;81.20;;;;;;5016545;28;20045;-83
2021/09/20 02:55:57;;;;;;;13.55;7.07;;;17.20;81.20;;;;;;5013018;28;20572;-82
2021/09/20 02:58:23;;;;;;;14.82;7.72;;;17.20;81.20;;;;;;5014428;28;20054;-83
2021/09/20 03:00:50;;;;;;;18.08;7.65;;;17.30;81.20;;;;;;5016467;28;20049;-82
2021/09/20 03:03:17;;;;;;;15.27;8.65;;;17.30;81.10;;;;;;5016345;28;20057;-83
2021/09/20 03:05:45;;;;;;;20.77;8.00;;;17.30;81.10;;;;;;5016364;28;20050;-82
2021/09/20 03:08:11;;;;;;;13.30;7.22;;;17.30;81.00;;;;;;5014833;28;20080;-82
2021/09/20 03:10:38;;;;;;;15.02;7.70;;;17.30;81.10;;;;;;5013131;28;20185;-82
2021/09/20 03:13:05;;;;;;;12.65;6.78;;;17.20;81.10;;;;;;5015307;28;20466;-82
2021/09/20 03:15:32;;;;;;;16.38;7.97;;;17.20;81.20;;;;;;5016274;28;20113;-82
2021/09/20 03:17:59;;;;;;;11.68;7.53;;;17.30;81.20;;;;;;5016556;28;20085;-82
2021/09/20 03:20:26;;;;;;;13.80;7.03;;;17.20;81.20;;;;;;5015968;28;20676;-82
2021/09/20 03:22:53;;;;;;;16.92;7.70;;;17.20;81.20;;;;;;5012207;28;20041;-82
2021/09/20 03:25:21;;;;;;;15.38;7.38;;;17.20;81.30;;;;;;5014624;28;20506;-82
2021/09/20 03:27:48;;;;;;;10.00;6.35;;;17.20;81.20;;;;;;5013207;28;20589;-82
2021/09/20 03:30:16;;;;;;;13.05;7.15;;;17.20;81.20;;;;;;5013220;28;20466;-82
2021/09/20 03:32:43;;;;;;;14.20;7.47;;;17.20;81.10;;;;;;5013146;28;20050;-83
2021/09/20 03:35:14;;;;;;;16.30;7.72;;;17.30;81.10;;;;;;5013233;28;20138;-83
2021/09/20 03:37:43;;;;;;;21.02;8.65;;;17.20;81.10;;;;;;5011836;28;20057;-83
2021/09/20 03:40:13;;;;;;;12.88;7.35;;;17.30;81.20;;;;;;5011364;28;20495;-84
2021/09/20 03:42:40;;;;;;;17.10;7.63;;;17.30;81.30;;;;;;5013193;28;20050;-86
2021/09/20 03:45:08;;;;;;;16.80;6.88;;;17.30;81.30;;;;;;5012968;28;20050;-86
2021/09/20 03:47:35;;;;;;;18.05;7.60;;;17.20;81.20;;;;;;5013031;28;20469;-87
2021/09/20 03:50:05;;;;;;;30.23;8.20;;;17.30;81.20;;;;;;5013167;28;20084;-86
2021/09/20 03:52:32;;;;;;;17.65;7.97;;;17.30;81.20;;;;;;5010884;28;20107;-85
2021/09/20 03:54:59;;;;;;;14.88;7.13;;;17.30;81.20;;;;;;5012483;28;20501;-86
2021/09/20 03:57:26;;;;;;;12.95;7.00;;;17.30;81.30;;;;;;5015735;28;20045;-86
2021/09/20 03:59:53;;;;;;;12.88;7.13;;;17.30;81.20;;;;;;5015694;28;20054;-87
2021/09/20 04:02:20;;;;;;;19.17;6.65;;;17.30;81.30;;;;;;5015637;28;20099;-87
2021/09/20 04:04:47;;;;;;;22.25;8.18;;;17.30;81.30;;;;;;5011459;28;20049;-87
2021/09/20 04:07:14;;;;;;;10.65;6.13;;;17.30;81.30;;;;;;5015040;28;20103;-86
2021/09/20 04:09:41;;;;;;;14.73;7.97;;;17.30;81.30;;;;;;5015457;28;20080;-87
2021/09/20 04:12:09;;;;;;;14.80;6.90;;;17.30;81.30;;;;;;5015939;28;20046;-87
2021/09/20 04:14:38;;;;;;;15.32;7.38;;;17.30;81.30;;;;;;5019140;28;20049;-87
2021/09/20 04:17:06;;;;;;;11.23;6.30;;;17.30;81.30;;;;;;5017144;28;20046;-86
2021/09/20 04:19:34;;;;;;;11.70;6.45;;;17.30;81.30;;;;;;5016779;28;20058;-87
2021/09/20 04:22:03;;;;;;;21.60;8.32;;;17.30;81.30;;;;;;5018396;28;20053;-86
2021/09/20 04:24:30;;;;;;;17.70;8.73;;;17.30;81.30;;;;;;5018949;28;20499;-87
2021/09/20 04:26:57;;;;;;;18.27;8.98;;;17.30;81.40;;;;;;5019201;28;20076;-86
2021/09/20 04:29:24;;;;;;;16.48;8.50;;;17.30;81.50;;;;;;5019047;28;20050;-87
2021/09/20 04:31:51;;;;;;;17.08;8.65;;;17.30;81.50;;;;;;5015078;28;20111;-87
2021/09/20 04:34:18;;;;;;;17.23;8.70;;;17.20;81.60;;;;;;5017775;28;20054;-87
2021/09/20 04:36:45;;;;;;;15.88;6.35;;;17.20;81.70;;;;;;5019188;28;20045;-87
2021/09/20 04:39:11;;;;;;;19.67;8.57;;;17.20;81.80;;;;;;5018469;28;20104;-87
2021/09/20 04:41:40;;;;;;;15.23;8.98;;;17.20;81.80;;;;;;5018922;28;20049;-87
2021/09/20 04:44:07;;;;;;;14.55;8.25;;;17.20;81.80;;;;;;5016857;28;20050;-88
2021/09/20 04:46:35;;;;;;;15.70;8.80;;;17.20;81.90;;;;;;5016412;28;20050;-87
2021/09/20 04:49:02;;;;;;;16.67;8.40;;;17.20;81.90;;;;;;5017695;28;20100;-88
2021/09/20 04:51:29;;;;;;;14.45;8.73;;;17.20;81.90;;;;;;5018677;28;20506;-87
2021/09/20 04:53:56;;;;;;;15.27;7.88;;;17.20;81.90;;;;;;5018333;28;20050;-88
2021/09/20 04:56:23;;;;;;;11.10;7.70;;;17.20;81.90;;;;;;5001223;28;20095;-88
2021/09/20 04:58:51;;;;;;;13.30;8.00;;;17.20;81.90;;;;;;4997043;28;20096;-87
2021/09/20 05:01:18;;;;;;;9.68;6.85;;;17.20;81.90;;;;;;5029112;28;20107;-87
2021/09/20 05:03:45;;;;;;;13.90;7.80;;;17.20;81.90;;;;;;5018429;28;20045;-86
2021/09/20 05:06:12;;;;;;;18.75;7.45;;;17.20;81.90;;;;;;5018395;28;20498;-87
2021/09/20 05:08:39;;;;;;;12.75;8.35;;;17.20;81.90;;;;;;5017892;28;20399;-86
2021/09/20 05:11:06;;;;;;;13.73;8.32;;;17.20;81.90;;;;;;5016148;28;20580;-86
2021/09/20 05:13:33;;;;;;;9.35;6.15;;;17.20;81.80;;;;;;5015929;28;20585;-86
2021/09/20 05:16:00;;;;;;;11.57;8.15;;;17.20;81.80;;;;;;5017389;28;20053;-87
2021/09/20 05:18:27;;;;;;;14.82;8.10;;;17.10;81.70;;;;;;5018264;28;20049;-86
2021/09/20 05:20:54;;;;;;;14.43;7.13;;;17.20;81.70;;;;;;5018052;28;20486;-87
2021/09/20 05:23:21;;;;;;;13.23;9.43;;;17.20;81.70;;;;;;5017541;28;20502;-86
2021/09/20 05:25:48;;;;;;;9.73;7.13;;;17.20;81.70;;;;;;5011608;28;20041;-87
2021/09/20 05:28:15;;;;;;;13.98;8.43;;;17.10;81.70;;;;;;4999755;28;20049;-86
2021/09/20 05:30:42;;;;;;;10.60;7.30;;;17.20;81.70;;;;;;5018061;28;20465;-87
2021/09/20 05:33:09;;;;;;;13.40;7.38;;;17.20;81.60;;;;;;5017826;28;20053;-87
2021/09/20 05:35:36;;;;;;;12.32;6.35;;;17.10;81.60;;;;;;5017659;28;20087;-88
2021/09/20 05:38:04;;;;;;;11.52;7.20;;;17.20;81.60;;;;;;5015445;28;20046;-87
2021/09/20 05:40:33;;;;;;;15.80;6.97;;;17.20;81.60;;;;;;5026736;28;20099;-88
2021/09/20 05:43:01;;;;;;;11.93;8.40;;;17.10;81.50;;;;;;5026405;28;20395;-87
2021/09/20 05:45:29;;;;;;;13.25;9.00;;;17.10;81.50;;;;;;5027773;28;20107;-87
2021/09/20 05:47:58;;;;;;;10.18;7.03;;;17.20;81.50;;;;;;5027656;28;20060;-86
2021/09/20 05:50:26;;;;;;;12.10;5.93;;;17.10;81.50;;;;;;5027367;28;20053;-86
2021/09/20 05:52:54;;;;;;;12.57;6.68;;;17.20;81.50;;;;;;5029960;28;20038;-88
2021/09/20 05:55:22;;;;;;;9.45;6.93;;;17.10;81.40;;;;;;5024833;28;20100;-87
2021/09/20 05:57:49;;;;;;;10.20;7.90;;;17.10;81.40;;;;;;5031475;28;20095;-87
2021/09/20 06:00:16;;;;;;;11.35;7.63;;;17.10;81.40;;;;;;5028947;28;20080;-87
2021/09/20 06:02:46;;;;;;;11.48;7.18;;;17.10;81.40;;;;;;5028701;28;20050;-87
2021/09/20 06:05:14;;;;;;;12.20;8.75;;;17.10;81.40;;;;;;5028011;28;20781;-87
2021/09/20 06:07:42;;;;;;;13.25;9.00;;;17.10;81.50;;;;;;5030299;28;20053;-86
2021/09/20 06:10:10;;;;;;;9.18;6.10;;;17.10;81.50;;;;;;5031850;28;20456;-87
2021/09/20 06:12:38;;;;;;;9.88;7.47;;;17.10;81.50;;;;;;5029865;28;20494;-87
2021/09/20 06:15:08;;;;;;;10.90;7.43;;;17.10;81.60;;;;;;5028289;28;20072;-88
2021/09/20 06:17:35;;;;;;;10.48;7.80;;;17.10;81.60;;;;;;5028396;28;20049;-86
2021/09/20 06:20:05;;;;;;;11.73;9.25;;;17.10;81.60;;;;;;5010756;28;20600;-87
2021/09/20 06:22:33;;;;;;;12.68;7.20;;;17.10;81.70;;;;;;5030793;28;20049;-88
2021/09/20 06:25:01;;;;;;;16.35;9.60;;;17.10;81.80;;;;;;5030469;28;20073;-88
2021/09/20 06:27:29;;;;;;;11.45;6.22;;;17.10;81.90;;;;;;5027964;28;20096;-88
2021/09/20 06:29:56;;;;;;;15.23;9.10;;;17.10;81.90;;;;;;5028048;28;20053;-88
2021/09/20 06:32:23;;;;;;;10.07;6.93;;;17.10;81.90;;;;;;5028198;28;20041;-87
2021/09/20 06:34:50;;;;;;;9.43;5.90;;;17.10;82.00;;;;;;5027974;28;20101;-87
2021/09/20 06:37:17;;;;;;;9.88;7.07;;;17.10;82.00;;;;;;5027842;28;20076;-88
2021/09/20 06:39:44;;;;;;;9.13;5.50;;;17.10;82.00;;;;;;5028028;28;20061;-88
2021/09/20 06:42:11;;;;;;;12.27;7.53;;;17.20;82.00;;;;;;5027859;28;20104;-88
2021/09/20 06:44:38;;;;;;;12.07;9.15;;;17.10;82.00;;;;;;5027854;28;20053;-87
2021/09/20 06:47:06;;;;;;;12.02;8.35;;;17.10;82.00;;;;;;5028198;28;20556;-87
2021/09/20 06:49:34;;;;;;;12.75;8.93;;;17.20;82.00;;;;;;5027932;28;20057;-88
2021/09/20 06:52:02;;;;;;;10.75;7.20;;;17.20;82.00;;;;;;5029995;28;20427;-88
2021/09/20 06:54:29;;;;;;;8.57;5.47;;;17.20;82.00;;;;;;5027683;28;20053;-88
2021/09/20 06:56:55;;;;;;;9.05;6.50;;;17.20;82.10;;;;;;5027534;28;20049;-88
2021/09/20 06:59:22;;;;;;;10.13;6.68;;;17.20;82.10;;;;;;5028078;28;20057;-88
2021/09/20 07:01:49;;;;;;;11.88;6.85;;;17.20;82.10;;;;;;5012635;28;20075;-88
2021/09/20 07:04:16;;;;;;;11.90;9.05;;;17.30;82.10;;;;;;5027037;28;20057;-87
2021/09/20 07:06:45;;;;;;;13.25;7.95;;;17.30;82.10;;;;;;5027825;28;20132;-88
2021/09/20 07:09:12;;;;;;;13.23;7.70;;;17.30;82.10;;;;;;5027530;28;20053;-88
2021/09/20 07:11:40;;;;;;;8.15;6.00;;;17.30;82.10;;;;;;5027324;28;20045;-88
2021/09/20 07:14:08;;;;;;;10.02;7.30;;;17.30;82.10;;;;;;5027830;28;20045;-88
2021/09/20 07:16:35;;;;;;;12.80;8.27;;;17.30;82.10;;;;;;5030077;28;20099;-88
2021/09/20 07:19:02;;;;;;;13.15;9.18;;;17.30;82.10;;;;;;5029346;28;20049;-89
2021/09/20 07:21:30;;;;;;;13.05;8.55;;;17.30;82.10;;;;;;5027426;28;20107;-87
2021/09/20 07:23:58;;;;;;;9.75;6.72;;;17.40;82.20;;;;;;5027459;28;20564;-87
2021/09/20 07:26:27;;;;;;;8.82;6.75;;;17.30;82.20;;;;;;5027450;28;20095;-88
2021/09/20 07:28:55;;;;;;;10.32;7.63;;;17.40;82.20;;;;;;5029028;28;20050;-86
2021/09/20 07:31:22;;;;;;;12.65;8.45;;;17.40;82.20;;;;;;5030922;28;20111;-88
2021/09/20 07:33:49;;;;;;;12.95;9.95;;;17.40;82.30;;;;;;5028045;28;20060;-88
2021/09/20 07:36:17;;;;;;;10.93;7.38;;;17.40;82.30;;;;;;5027480;28;20126;-87
2021/09/20 07:38:44;;;;;;;9.70;6.53;;;17.40;82.30;;;;;;5027715;28;20053;-88
2021/09/20 07:41:11;;;;;;;15.63;9.32;;;17.50;82.40;;;;;;5027196;28;20399;-88
2021/09/20 07:43:39;;;;;;;9.40;6.70;;;17.50;82.40;;;;;;5029233;28;20083;-88
2021/09/20 07:46:05;;;;;;;11.32;7.10;;;17.50;82.30;;;;;;5030112;28;20111;-85
2021/09/20 07:48:32;;;;;;;9.98;7.38;;;17.50;82.30;;;;;;5026372;28;20057;-87
2021/09/20 07:50:59;;;;;;;10.30;6.95;;;17.50;82.30;;;;;;5031293;28;20128;-88
2021/09/20 07:53:26;;;;;;;10.27;8.18;;;17.50;82.40;;;;;;5031593;28;20041;-88
2021/09/20 07:55:53;;;;;;;14.35;9.93;;;17.60;82.40;;;;;;5032702;28;20107;-87
2021/09/20 07:58:20;;;;;;;14.63;10.70;;;17.60;82.40;;;;;;5035002;28;20045;-87
2021/09/20 08:00:47;;;;;;;13.68;10.27;;;17.60;82.40;;;;;;5033244;28;20049;-87
2021/09/20 08:03:14;;;;;;;10.00;7.47;;;17.60;82.40;;;;;;5031018;28;20053;-87
2021/09/20 08:05:42;;;;;;;14.10;8.73;;;17.70;82.40;;;;;;5031047;28;20069;-88
2021/09/20 08:08:09;;;;;;;13.93;10.77;;;17.70;82.40;;;;;;5031006;28;20096;-88
2021/09/20 08:10:36;;;;;;;13.68;9.50;;;17.70;82.40;;;;;;5032412;28;20053;-88
2021/09/20 08:13:06;;;;;;;11.05;8.95;;;17.80;82.50;;;;;;5034711;28;20045;-88
2021/09/20 08:15:33;;;;;;;11.25;9.00;;;17.80;82.50;;;;;;5030533;28;20108;-88
2021/09/20 08:18:01;;;;;;;14.57;11.10;;;17.90;82.60;;;;;;5032354;28;20498;-88
2021/09/20 08:20:28;;;;;;;11.82;9.90;;;17.90;82.60;;;;;;5030269;28;20100;-88
2021/09/20 08:22:55;;;;;;;12.35;8.63;;;17.90;82.60;;;;;;5030878;28;20095;-88
2021/09/20 08:25:23;;;;;;;11.68;8.55;;;17.90;82.60;;;;;;5034205;28;20053;-88
2021/09/20 08:27:51;;;;;;;15.30;11.68;;;17.90;82.60;;;;;;5031676;28;20053;-89
2021/09/20 08:30:21;;;;;;;14.15;10.88;;;17.90;82.50;;;;;;5030040;28;20049;-89
2021/09/20 08:32:48;;;;;;;15.32;11.38;;;17.90;82.50;;;;;;5030645;28;20453;-88
2021/09/20 08:35:16;;;;;;;19.70;13.25;;;18.00;82.50;;;;;;5030130;28;20099;-89
2021/09/20 08:37:44;;;;;;;13.40;11.25;;;18.00;82.50;;;;;;5031541;28;20522;-89
2021/09/20 08:40:11;;;;;;;14.82;11.95;;;18.00;82.40;;;;;;5023356;28;20057;-86
2021/09/20 08:42:40;;;;;;;13.48;11.43;;;18.00;82.30;;;;;;5029043;28;20049;-87
2021/09/20 08:45:09;;;;;;;22.80;15.57;;;18.00;82.30;;;;;;5026769;28;20056;-87
2021/09/20 08:47:44;;;;;;;22.75;15.82;;;18.00;82.30;;;;;;5027777;28;20045;-87
2021/09/20 08:50:14;;;;;;;17.20;11.75;;;18.00;82.40;;;;;;5031827;28;20053;-87
2021/09/20 08:52:40;;;;;;;19.88;13.05;;;18.10;82.40;;;;;;5031694;28;20469;-87
2021/09/20 08:55:09;;;;;;;23.20;17.42;;;18.10;82.40;;;;;;5032958;28;20049;-86
2021/09/20 08:57:37;;;;;;;29.35;17.95;;;18.10;82.40;;;;;;5031629;28;20096;-86
2021/09/20 09:00:05;;;;;;;27.00;19.83;;;18.10;82.50;;;;;;5027132;28;20502;-86
2021/09/20 09:02:32;;;;;;;26.10;18.83;;;18.10;82.50;;;;;;5029556;28;20057;-86
2021/09/20 09:05:13;;;;;;;21.13;17.17;;;18.20;82.60;;;;;;5029985;28;20470;-86
2021/09/20 09:07:54;;;;;;;38.17;24.75;;;18.20;82.60;;;;;;5031412;28;20049;-87
2021/09/20 09:10:24;;;;;;;24.80;17.15;;;18.20;82.60;;;;;;5029533;28;20049;-86
2021/09/20 09:12:51;;;;;;;34.22;24.02;;;18.20;82.70;;;;;;5031036;28;20095;-88
2021/09/20 09:15:22;;;;;;;30.27;20.80;;;18.20;82.70;;;;;;5028614;28;20057;-87
2021/09/20 09:17:53;;;;;;;38.47;25.20;;;18.30;82.80;;;;;;5029186;28;20546;-87
2021/09/20 09:20:27;;;;;;;31.60;22.35;;;18.20;82.90;;;;;;5029543;28;20089;-87
2021/09/20 09:22:56;;;;;;;33.92;24.40;;;18.30;82.90;;;;;;5014797;28;20059;-86
2021/09/20 09:25:28;;;;;;;54.85;32.15;;;18.30;83.00;;;;;;5031985;28;20058;-86
2021/09/20 09:28:03;;;;;;;47.92;31.77;;;18.40;83.00;;;;;;5032481;28;20057;-87
2021/09/20 09:30:41;;;;;;;49.42;31.60;;;18.40;83.10;;;;;;5030566;28;20045;-87
2021/09/20 09:33:18;;;;;;;62.13;38.97;;;18.40;83.20;;;;;;5028984;28;20488;-86
2021/09/20 09:35:53;;;;;;;70.88;44.35;;;18.40;83.20;;;;;;5030521;28;20049;-86
2021/09/20 09:38:21;;;;;;;76.07;43.30;;;18.40;83.30;;;;;;5029301;28;20053;-86
2021/09/20 09:40:55;;;;;;;72.88;43.67;;;18.50;83.40;;;;;;5029003;28;20049;-86
2021/09/20 09:43:28;;;;;;;98.65;47.17;;;18.60;83.40;;;;;;5012750;28;20053;-85
2021/09/20 09:46:17;;;;;;;84.38;48.00;;;18.60;83.40;;;;;;5031940;28;20112;-85
2021/09/20 09:48:45;;;;;;;81.57;47.85;;;18.70;83.40;;;;;;5026285;28;20056;-85
2021/09/20 09:51:12;;;;;;;88.70;53.28;;;18.80;83.40;;;;;;5028945;28;20580;-85
2021/09/20 09:53:41;;;;;;;81.85;50.35;;;18.80;83.40;;;;;;5028964;28;20072;-85
2021/09/20 09:56:15;;;;;;;76.07;48.58;;;18.90;83.40;;;;;;5028667;28;20054;-85
2021/09/20 09:58:59;;;;;;;83.68;51.47;;;18.90;83.30;;;;;;5030379;28;20514;-85
2021/09/20 10:01:38;;;;;;;79.47;49.30;;;18.90;83.10;;;;;;5028891;28;20100;-85
2021/09/20 10:04:06;;;;;;;80.97;49.53;;;19.00;83.00;;;;;;5031122;28;20541;-85
2021/09/20 10:06:40;;;;;;;88.45;53.70;;;19.10;82.90;;;;;;5030248;28;20045;-85
2021/09/20 10:09:08;;;;;;;67.32;43.55;;;19.20;82.80;;;;;;5028435;28;20107;-85
2021/09/20 10:11:36;;;;;;;63.00;40.22;;;19.20;82.60;;;;;;5027617;28;20068;-85
2021/09/20 10:14:03;;;;;;;70.05;44.88;;;19.30;82.50;;;;;;5030396;28;20049;-85
2021/09/20 10:16:32;;;;;;;67.15;43.53;;;19.30;82.40;;;;;;5030182;28;20120;-85
2021/09/20 10:19:00;;;;;;;64.55;42.92;;;19.40;82.30;;;;;;5029982;28;20049;-85
2021/09/20 10:21:28;;;;;;;88.60;51.80;;;19.40;82.20;;;;;;5028110;28;20054;-85
2021/09/20 10:23:58;;;;;;;99.40;57.72;;;19.40;82.20;;;;;;5028151;28;20057;-85
2021/09/20 10:26:26;;;;;;;77.65;49.72;;;19.50;82.10;;;;;;5027923;28;20041;-85
2021/09/20 10:28:58;;;;;;;75.35;48.63;;;19.50;82.00;;;;;;5028830;28;20706;-85
2021/09/20 10:31:27;;;;;;;88.38;53.33;;;19.60;81.70;;;;;;5030888;28;20053;-85
2021/09/20 10:34:33;;;;;;;84.90;51.95;;;19.60;81.60;;;;;;5031363;28;20096;-85
2021/09/20 10:37:00;;;;;;;103.60;62.38;;;19.70;81.50;;;;;;4951966;29;20047;-85
2021/09/20 10:39:57;;;;;;;78.60;51.20;;;19.70;81.30;;;;;;4950664;29;20106;-85
2021/09/20 10:42:33;;;;;;;83.85;55.55;;;19.70;81.20;;;;;;4942923;28;20102;-85
2021/09/20 10:45:07;;;;;;;87.53;57.05;;;19.70;81.00;;;;;;4950613;29;20051;-85
2021/09/20 10:47:44;;;;;;;84.88;53.20;;;19.80;80.80;;;;;;4950538;29;20528;-85
2021/09/20 10:50:13;;;;;;;99.40;60.28;;;19.80;80.60;;;;;;4950751;29;20043;-84
2021/09/20 10:53:33;;;;;;;101.55;63.10;;;19.80;80.50;;;;;;4950911;29;20051;-84
2021/09/20 10:56:06;;;;;;;;;;;19.80;80.40;;;;;;4853881;29;20057;-84
2021/09/20 10:58:36;;;;;;;103.25;63.42;;;19.90;80.30;;;;;;4856126;29;20520;-84
2021/09/20 11:01:12;;;;;;;80.20;53.80;;;19.90;80.30;;;;;;4855690;29;20078;-84
2021/09/20 11:03:40;;;;;;;109.28;66.93;;;19.90;80.30;;;;;;4853738;29;20171;-84
2021/09/20 11:06:21;;;;;;;107.53;67.30;;;20.00;80.30;;;;;;4853615;29;20049;-84
2021/09/20 11:08:57;;;;;;;93.90;62.40;;;20.00;80.00;;;;;;4916325;29;20095;-84
2021/09/20 11:11:44;;;;;;;99.57;65.90;;;20.10;79.80;;;;;;4929083;29;20520;-84
2021/09/20 11:14:18;;;;;;;93.88;61.53;;;20.10;79.60;;;;;;4929739;29;20072;-84
2021/09/20 11:16:52;;;;;;;97.18;65.45;;;20.10;79.50;;;;;;4929426;29;20513;-84
2021/09/20 11:19:24;;;;;;;79.53;52.35;;;20.20;79.30;;;;;;4928481;29;20043;-85
2021/09/20 11:22:04;;;;;;;95.82;64.88;;;20.30;79.20;;;;;;4930070;29;20060;-85
2021/09/20 11:24:37;;;;;;;95.30;63.33;;;20.30;79.10;;;;;;4932168;29;20088;-85
2021/09/20 11:27:23;;;;;;;100.50;64.90;;;20.40;79.10;;;;;;5004152;28;20045;-85
2021/09/20 11:29:52;;;;;;;93.88;64.43;;;20.50;78.90;;;;;;5031622;28;20045;-84
2021/09/20 11:32:20;;;;;;;100.25;66.07;;;20.60;78.30;;;;;;5033122;28;20046;-85
2021/09/20 11:34:52;;;;;;;86.07;60.38;;;20.70;78.00;;;;;;5032290;28;20053;-85
2021/09/20 11:37:32;;;;;;;94.43;64.85;;;20.70;77.70;;;;;;5032069;28;20075;-85
2021/09/20 11:40:11;;;;;;;96.57;66.20;;;20.80;77.60;;;;;;5034673;28;20057;-85
2021/09/20 11:42:39;;;;;;;79.53;58.97;;;20.90;77.60;;;;;;5013816;28;20046;-85
2021/09/20 11:45:17;;;;;;;102.45;69.13;;;21.00;77.50;;;;;;5031168;28;20115;-86
2021/09/20 11:47:54;;;;;;;95.47;64.53;;;21.00;77.50;;;;;;5028809;28;20111;-85
2021/09/20 11:50:26;;;;;;;92.00;64.07;;;21.10;77.50;;;;;;5031444;28;20045;-85
2021/09/20 11:52:58;;;;;;;88.75;61.95;;;21.20;77.50;;;;;;5015437;28;20041;-86
2021/09/20 11:55:33;;;;;;;78.93;59.10;;;21.30;77.50;;;;;;5033957;28;20469;-85
2021/09/20 11:58:04;;;;;;;77.75;56.38;;;21.40;77.30;;;;;;5035210;28;20081;-85
2021/09/20 12:00:34;;;;;;;76.80;60.05;;;21.40;77.10;;;;;;5031119;28;20049;-85
2021/09/20 12:03:08;;;;;;;76.47;57.35;;;21.50;76.60;;;;;;5032544;28;20050;-85
2021/09/20 12:05:37;;;;;;;79.40;60.58;;;21.50;76.10;;;;;;5031089;28;20045;-84
2021/09/20 12:08:16;;;;;;;88.43;63.45;;;21.50;75.70;;;;;;5030497;28;20046;-85
2021/09/20 12:10:43;;;;;;;83.30;62.58;;;21.60;75.30;;;;;;5032712;28;20042;-85
2021/09/20 12:13:20;;;;;;;84.88;64.13;;;21.50;75.20;;;;;;5034788;28;20053;-86
2021/09/20 12:15:50;;;;;;;89.88;63.83;;;21.50;75.40;;;;;;5030099;28;20061;-85
2021/09/20 12:18:20;;;;;;;82.60;61.60;;;21.40;75.50;;;;;;5030789;28;20046;-86
2021/09/20 12:20:53;;;;;;;84.03;61.63;;;21.40;75.60;;;;;;5030599;28;20057;-86
2021/09/20 12:23:25;;;;;;;85.35;60.90;;;21.40;75.80;;;;;;5030125;28;20045;-85
2021/09/20 12:25:57;;;;;;;79.57;58.70;;;21.40;75.90;;;;;;5015680;28;20045;-86
2021/09/20 12:28:33;;;;;;;72.43;53.72;;;21.40;75.90;;;;;;5010174;28;20053;-86
2021/09/20 12:31:03;;;;;;;76.43;56.72;;;21.40;75.70;;;;;;5034023;28;20053;-86
2021/09/20 12:33:46;;;;;;;82.50;59.72;;;21.40;75.70;;;;;;5029806;28;20128;-85
2021/09/20 12:36:26;;;;;;;77.63;57.03;;;21.40;75.80;;;;;;5030171;28;20411;-86
2021/09/20 12:39:09;;;;;;;75.03;57.00;;;21.40;75.60;;;;;;5030487;28;20095;-85
2021/09/20 12:41:38;;;;;;;70.82;56.33;;;21.40;75.50;;;;;;5031819;28;20504;-85
2021/09/20 12:44:08;;;;;;;79.93;59.88;;;21.40;75.40;;;;;;5030193;28;20049;-86